Terminal Aerodrome Forecast
Issued by NWS Pittsburgh, PA

Current Version | Previous Version | Text Only | Print | Product List | Glossary Off
Versions: 1 2 3 4 5 6 7 8 9 10 11 12 13 14 15 16 17 18 19 20 21 22 23 24 25 26 27 28

000
FTUS41 KPBZ 261330 AAA
TAFPIT
TAF AMD
KPIT 261330Z 2614/2718 18006KT P6SM VCSH SCT040 BKN080
     FM261800 20008KT P6SM BKN100
     FM270100 18005KT P6SM VCSH BKN050
     FM270500 20007KT 5SM BR BKN025=

USA.gov is the U.S. government's official web portal to all federal, state and local government web resources and services.